Station Historical Data
Daily Summary for May 22, 2012 Units:  English    Metric   Both
« Previous Day
Next Day »
Daily Weekly Monthly Yearly Custom
  High: Low: Average:
Temperature: 75.7 °F 59.5 °F 66.1 °F
Dew Point: 64.1 °F 53.7 °F 58.9 °F
Humidity: 95% 49% 79%
Wind Speed: 11.0mph 0.0mph 2.8mph
Wind Gust: 11.0mph - -
Wind- - WNW
Pressure: 29.96 in 29.83 in -
Precipitation: 0.01 in    
Historical Graphs
 
 
Tabular Data for May 22, 2012
Time Temperature Dew Point Pressure Wind Wind Speed Wind Gust Humidity Rainfall Rate (Hourly) Conditions
00:00 60.1 °F 58.4 °F 29.96 in SW 1.0 mph 3.0 mph 94% 0.00 in
00:05 60.1 °F 58.4 °F 29.95 in Calm     94% 0.00 in
00:10 60.2 °F 58.5 °F 29.95 in West 2.0 mph 2.0 mph 94% 0.00 in
00:15 60.2 °F 58.5 °F 29.95 in West 1.0 mph 3.0 mph 94% 0.00 in
00:21 60.2 °F 58.5 °F 29.95 in West 1.0 mph 1.0 mph 94% 0.00 in
00:26 60.2 °F 58.5 °F 29.94 in Calm   1.0 mph 94% 0.00 in
00:31 60.0 °F 58.3 °F 29.95 in Calm     94% 0.00 in
00:36 60.0 °F 58.3 °F 29.94 in Calm     94% 0.00 in
00:41 60.0 °F 58.3 °F 29.95 in Calm     94% 0.00 in
00:46 60.0 °F 58.3 °F 29.95 in West 1.0 mph 1.0 mph 94% 0.00 in
00:51 59.8 °F 58.1 °F 29.95 in North 1.0 mph 2.0 mph 94% 0.00 in
00:56 59.7 °F 58.0 °F 29.95 in North 1.0 mph 2.0 mph 94% 0.00 in
01:01 59.7 °F 58.0 °F 29.95 in NNW 1.0 mph 2.0 mph 94% 0.00 in
01:06 59.6 °F 57.9 °F 29.95 in Calm   1.0 mph 94% 0.00 in
01:11 59.7 °F 58.0 °F 29.95 in Calm   1.0 mph 94% 0.00 in
01:16 59.7 °F 58.0 °F 29.94 in Calm     94% 0.00 in
01:21 59.7 °F 58.3 °F 29.94 in Calm     95% 0.00 in
01:27 59.7 °F 58.3 °F 29.94 in WNW 1.0 mph 1.0 mph 95% 0.00 in
01:32 59.7 °F 58.3 °F 29.94 in West 1.0 mph 2.0 mph 95% 0.00 in
01:37 59.8 °F 58.4 °F 29.93 in WNW 1.0 mph 1.0 mph 95% 0.00 in
01:42 59.7 °F 58.3 °F 29.93 in NW 1.0 mph 2.0 mph 95% 0.00 in
01:47 59.7 °F 58.3 °F 29.93 in Calm   1.0 mph 95% 0.00 in
01:52 59.7 °F 58.3 °F 29.93 in Calm     95% 0.00 in
01:57 59.7 °F 58.3 °F 29.93 in Calm     95% 0.00 in
02:02 59.7 °F 58.3 °F 29.93 in Calm     95% 0.00 in
02:07 59.7 °F 58.3 °F 29.92 in Calm   1.0 mph 95% 0.00 in
02:12 59.7 °F 58.3 °F 29.92 in WNW 2.0 mph 2.0 mph 95% 0.00 in
02:17 59.7 °F 58.3 °F 29.92 in WNW 1.0 mph 2.0 mph 95% 0.00 in
02:22 59.6 °F 58.2 °F 29.92 in Calm   1.0 mph 95% 0.00 in
02:27 59.6 °F 58.2 °F 29.92 in West 1.0 mph 1.0 mph 95% 0.00 in
02:32 59.7 °F 58.3 °F 29.93 in Calm     95% 0.00 in
02:37 59.7 °F 58.3 °F 29.93 in Calm   2.0 mph 95% 0.00 in
02:42 59.7 °F 58.3 °F 29.92 in West 2.0 mph 2.0 mph 95% 0.00 in
02:47 59.7 °F 58.3 °F 29.92 in Calm   2.0 mph 95% 0.00 in
02:52 59.7 °F 58.3 °F 29.92 in Calm     95% 0.00 in
02:57 59.7 °F 58.3 °F 29.92 in Calm   1.0 mph 95% 0.00 in
03:02 59.9 °F 58.5 °F 29.92 in WSW 2.0 mph 3.0 mph 95% 0.00 in
03:07 59.9 °F 58.5 °F 29.92 in SW 2.0 mph 2.0 mph 95% 0.00 in
03:12 59.9 °F 58.5 °F 29.92 in SW 1.0 mph 2.0 mph 95% 0.00 in
03:17 59.9 °F 58.5 °F 29.92 in WSW 1.0 mph 2.0 mph 95% 0.00 in
03:22 60.0 °F 58.6 °F 29.92 in SW 1.0 mph 1.0 mph 95% 0.00 in
03:28 60.0 °F 58.6 °F 29.92 in WSW 2.0 mph 2.0 mph 95% 0.00 in
03:33 60.0 °F 58.6 °F 29.92 in WSW 1.0 mph 2.0 mph 95% 0.00 in
03:38 60.0 °F 58.6 °F 29.92 in SW 1.0 mph 2.0 mph 95% 0.00 in
03:43 60.0 °F 58.6 °F 29.92 in SW 2.0 mph 2.0 mph 95% 0.00 in
03:49 59.9 °F 58.5 °F 29.92 in Calm   1.0 mph 95% 0.00 in
03:54 59.9 °F 58.5 °F 29.92 in Calm     95% 0.00 in
03:59 59.9 °F 58.5 °F 29.91 in Calm   1.0 mph 95% 0.00 in
04:04 59.8 °F 58.4 °F 29.92 in Calm   1.0 mph 95% 0.00 in
04:09 59.8 °F 58.4 °F 29.92 in Calm   1.0 mph 95% 0.00 in
04:14 59.7 °F 58.3 °F 29.92 in Calm   1.0 mph 95% 0.00 in
04:19 59.6 °F 58.2 °F 29.92 in Calm   2.0 mph 95% 0.00 in
04:24 59.5 °F 58.1 °F 29.92 in WNW 2.0 mph 2.0 mph 95% 0.00 in
04:29 59.5 °F 58.1 °F 29.91 in NW 3.0 mph 3.0 mph 95% 0.00 in
04:34 59.5 °F 58.1 °F 29.91 in WNW 1.0 mph 2.0 mph 95% 0.00 in
04:39 59.5 °F 58.1 °F 29.91 in WNW 1.0 mph 2.0 mph 95% 0.00 in
04:44 59.5 °F 58.1 °F 29.91 in NW 2.0 mph 3.0 mph 95% 0.00 in
04:49 59.5 °F 58.1 °F 29.91 in Calm   1.0 mph 95% 0.00 in
04:54 59.5 °F 58.1 °F 29.90 in WNW 2.0 mph 3.0 mph 95% 0.00 in
04:59 59.6 °F 58.2 °F 29.90 in NW 2.0 mph 3.0 mph 95% 0.00 in
05:04 59.6 °F 58.2 °F 29.90 in WNW 2.0 mph 4.0 mph 95% 0.00 in
05:09 59.6 °F 58.2 °F 29.90 in NW 1.0 mph 3.0 mph 95% 0.00 in
05:14 59.7 °F 58.3 °F 29.90 in WNW 3.0 mph 3.0 mph 95% 0.00 in
05:19 59.7 °F 58.3 °F 29.90 in WNW 3.0 mph 4.0 mph 95% 0.00 in
05:24 59.8 °F 58.4 °F 29.91 in WNW 1.0 mph 3.0 mph 95% 0.00 in
05:29 59.7 °F 58.3 °F 29.91 in NW 3.0 mph 4.0 mph 95% 0.00 in
05:34 59.8 °F 58.4 °F 29.91 in NW 5.0 mph 6.0 mph 95% 0.00 in
05:39 59.9 °F 58.5 °F 29.91 in WNW 3.0 mph 5.0 mph 95% 0.00 in
05:44 59.9 °F 58.5 °F 29.91 in NW 3.0 mph 6.0 mph 95% 0.00 in
05:49 59.9 °F 58.5 °F 29.91 in NW 4.0 mph 5.0 mph 95% 0.00 in
05:50 59.9 °F 58.5 °F 29.90 in WNW 2.0 mph 5.0 mph 95% 0.00 in
05:55 59.8 °F 58.4 °F 29.90 in NW 1.0 mph 4.0 mph 95% 0.00 in
06:00 59.8 °F 58.4 °F 29.90 in NNW 2.0 mph 4.0 mph 95% 0.00 in
06:05 59.7 °F 58.3 °F 29.91 in NW 1.0 mph 3.0 mph 95% 0.00 in
06:10 59.7 °F 58.3 °F 29.90 in NW 2.0 mph 3.0 mph 95% 0.00 in
06:15 59.7 °F 58.3 °F 29.90 in NW 3.0 mph 3.0 mph 95% 0.00 in
06:20 59.7 °F 58.3 °F 29.91 in NW 4.0 mph 6.0 mph 95% 0.00 in
06:25 59.7 °F 58.3 °F 29.91 in NNW 2.0 mph 3.0 mph 95% 0.00 in
06:30 59.8 °F 58.4 °F 29.91 in NNW 4.0 mph 4.0 mph 95% 0.00 in
06:36 59.8 °F 58.4 °F 29.91 in NNW 3.0 mph 5.0 mph 95% 0.00 in
06:37 59.8 °F 58.4 °F 29.91 in NW 2.0 mph 4.0 mph 95% 0.00 in
06:42 59.8 °F 58.4 °F 29.91 in NW 4.0 mph 4.0 mph 95% 0.00 in
06:47 59.8 °F 58.4 °F 29.92 in WNW 3.0 mph 4.0 mph 95% 0.00 in
06:52 59.8 °F 58.4 °F 29.92 in WNW 2.0 mph 4.0 mph 95% 0.00 in
06:57 59.8 °F 58.4 °F 29.92 in WNW 2.0 mph 4.0 mph 95% 0.00 in
07:02 59.7 °F 58.3 °F 29.92 in NW 2.0 mph 3.0 mph 95% 0.00 in
07:07 59.7 °F 58.3 °F 29.92 in NW 2.0 mph 3.0 mph 95% 0.00 in
07:13 59.7 °F 58.3 °F 29.92 in NW 3.0 mph 4.0 mph 95% 0.00 in
07:18 59.7 °F 58.3 °F 29.92 in NNW 2.0 mph 5.0 mph 95% 0.00 in
07:23 59.7 °F 58.3 °F 29.92 in NNW 4.0 mph 6.0 mph 95% 0.00 in
07:28 59.8 °F 58.4 °F 29.92 in NNW 3.0 mph 5.0 mph 95% 0.00 in
07:33 59.9 °F 58.5 °F 29.92 in NNW 3.0 mph 4.0 mph 95% 0.00 in
07:38 59.9 °F 58.5 °F 29.92 in NNW 3.0 mph 6.0 mph 95% 0.00 in
07:43 60.0 °F 58.6 °F 29.92 in NNW 1.0 mph 5.0 mph 95% 0.00 in
07:48 60.1 °F 58.7 °F 29.92 in NNW 3.0 mph 4.0 mph 95% 0.00 in
07:53 60.3 °F 58.9 °F 29.92 in NNW 2.0 mph 4.0 mph 95% 0.00 in
07:58 60.5 °F 59.1 °F 29.92 in NE 1.0 mph 6.0 mph 95% 0.00 in
08:03 60.8 °F 59.4 °F 29.92 in North 4.0 mph 4.0 mph 95% 0.00 in
08:08 60.9 °F 59.5 °F 29.92 in NNW 2.0 mph 5.0 mph 95% 0.00 in
08:13 61.2 °F 59.8 °F 29.92 in NW 3.0 mph 4.0 mph 95% 0.00 in
08:18 61.3 °F 59.9 °F 29.92 in NW 3.0 mph 5.0 mph 95% 0.00 in
08:23 61.4 °F 60.0 °F 29.92 in NNW 4.0 mph 6.0 mph 95% 0.00 in
08:28 61.6 °F 60.2 °F 29.93 in NNW 5.0 mph 6.0 mph 95% 0.00 in
08:33 61.7 °F 60.3 °F 29.92 in WNW 4.0 mph 8.0 mph 95% 0.00 in
08:38 61.7 °F 60.3 °F 29.92 in NW 2.0 mph 6.0 mph 95% 0.00 in
08:43 61.9 °F 60.5 °F 29.92 in NW 4.0 mph 5.0 mph 95% 0.00 in
08:49 62.1 °F 60.4 °F 29.92 in NNW 4.0 mph 6.0 mph 94% 0.00 in
08:50 62.2 °F 60.5 °F 29.92 in WNW 4.0 mph 6.0 mph 94% 0.00 in
08:56 62.5 °F 60.8 °F 29.93 in NNW 4.0 mph 6.0 mph 94% 0.00 in
09:01 62.4 °F 60.7 °F 29.93 in NW 5.0 mph 7.0 mph 94% 0.00 in
09:06 62.2 °F 60.5 °F 29.93 in NW 5.0 mph 8.0 mph 94% 0.00 in
09:11 62.3 °F 60.6 °F 29.93 in NNW 5.0 mph 6.0 mph 94% 0.00 in
09:16 62.5 °F 60.8 °F 29.93 in WNW 4.0 mph 7.0 mph 94% 0.00 in
09:21 62.7 °F 61.0 °F 29.93 in NNW 6.0 mph 7.0 mph 94% 0.00 in
09:26 62.8 °F 61.0 °F 29.93 in NNW 7.0 mph 7.0 mph 94% 0.00 in
09:31 63.2 °F 61.5 °F 29.93 in NW 4.0 mph 6.0 mph 94% 0.00 in
09:36 63.8 °F 62.0 °F 29.93 in North 6.0 mph 7.0 mph 94% 0.00 in
09:41 64.0 °F 61.9 °F 29.93 in NW 6.0 mph 7.0 mph 93% 0.00 in
09:47 64.0 °F 61.6 °F 29.93 in NNW 2.0 mph 8.0 mph 92% 0.00 in
09:51 64.3 °F 61.9 °F 29.93 in NW 3.0 mph 6.0 mph 92% 0.00 in
09:57 64.7 °F 62.3 °F 29.93 in WNW 6.0 mph 6.0 mph 92% 0.00 in
10:02 64.7 °F 62.0 °F 29.93 in North 6.0 mph 6.0 mph 91% 0.00 in
10:07 64.9 °F 62.2 °F 29.93 in WNW 4.0 mph 9.0 mph 91% 0.00 in
10:12 65.4 °F 63.0 °F 29.93 in NNW 4.0 mph 5.0 mph 92% 0.00 in
10:17 65.4 °F 62.4 °F 29.93 in NW 3.0 mph 6.0 mph 90% 0.00 in
10:22 65.5 °F 62.8 °F 29.93 in NW 4.0 mph 5.0 mph 91% 0.00 in
10:27 65.7 °F 62.7 °F 29.93 in NNW 5.0 mph 6.0 mph 90% 0.00 in
10:32 65.8 °F 62.8 °F 29.93 in NW 2.0 mph 7.0 mph 90% 0.00 in
10:37 66.3 °F 63.0 °F 29.93 in North 4.0 mph 6.0 mph 89% 0.00 in
10:42 66.4 °F 63.1 °F 29.93 in NW 3.0 mph 7.0 mph 89% 0.00 in
10:47 66.6 °F 62.9 °F 29.93 in NE 3.0 mph 5.0 mph 88% 0.00 in
10:52 66.9 °F 62.6 °F 29.93 in NNW 5.0 mph 7.0 mph 86% 0.00 in
10:57 66.8 °F 62.8 °F 29.93 in West 3.0 mph 7.0 mph 87% 0.00 in
11:02 66.7 °F 63.4 °F 29.93 in NW 4.0 mph 6.0 mph 89% 0.00 in
11:07 66.9 °F 62.9 °F 29.93 in WNW 1.0 mph 3.0 mph 87% 0.00 in
11:12 67.4 °F 63.1 °F 29.93 in NNW 2.0 mph 5.0 mph 86% 0.00 in
11:17 67.7 °F 63.4 °F 29.93 in NW 5.0 mph 9.0 mph 86% 0.00 in
11:22 67.9 °F 63.6 °F 29.93 in North 4.0 mph 7.0 mph 86% 0.00 in
11:27 68.3 °F 63.6 °F 29.93 in WNW 5.0 mph 7.0 mph 85% 0.00 in
11:32 68.2 °F 63.2 °F 29.93 in NNW 2.0 mph 6.0 mph 84% 0.00 in
11:37 68.4 °F 63.7 °F 29.93 in WNW 5.0 mph 8.0 mph 85% 0.00 in
11:42 68.3 °F 64.0 °F 29.93 in West 2.0 mph 5.0 mph 86% 0.00 in
11:47 69.1 °F 64.1 °F 29.93 in NW 7.0 mph 8.0 mph 84% 0.00 in
11:52 68.8 °F 63.4 °F 29.93 in NW 4.0 mph 6.0 mph 83% 0.00 in
11:57 68.9 °F 63.2 °F 29.93 in WNW 6.0 mph 8.0 mph 82% 0.00 in
12:02 69.2 °F 63.8 °F 29.93 in West 2.0 mph 4.0 mph 83% 0.00 in
12:07 69.1 °F 62.7 °F 29.93 in WNW 5.0 mph 8.0 mph 80% 0.00 in
12:12 69.0 °F 62.9 °F 29.93 in NW 7.0 mph 9.0 mph 81% 0.00 in
12:17 69.0 °F 62.6 °F 29.93 in WNW 4.0 mph 6.0 mph 80% 0.00 in
12:22 69.4 °F 62.2 °F 29.93 in NW 3.0 mph 6.0 mph 78% 0.00 in
12:28 69.5 °F 62.3 °F 29.93 in NNW 2.0 mph 5.0 mph 78% 0.00 in
12:33 69.7 °F 62.5 °F 29.92 in North 5.0 mph 5.0 mph 78% 0.00 in
12:38 69.7 °F 62.2 °F 29.93 in NW 2.0 mph 7.0 mph 77% 0.00 in
12:43 69.8 °F 62.6 °F 29.92 in West 3.0 mph 6.0 mph 78% 0.00 in
12:48 70.1 °F 62.2 °F 29.92 in WNW 2.0 mph 6.0 mph 76% 0.00 in
12:53 70.2 °F 62.3 °F 29.92 in NW 6.0 mph 9.0 mph 76% 0.00 in
12:58 70.4 °F 61.0 °F 29.92 in NW 4.0 mph 7.0 mph 72% 0.00 in
13:03 70.6 °F 61.1 °F 29.92 in WNW 5.0 mph 7.0 mph 72% 0.00 in
13:08 71.0 °F 61.9 °F 29.92 in NW 6.0 mph 7.0 mph 73% 0.00 in
13:13 70.6 °F 61.9 °F 29.91 in NW 1.0 mph 5.0 mph 74% 0.00 in
13:18 70.7 °F 62.0 °F 29.91 in NNW 4.0 mph 6.0 mph 74% 0.00 in
13:23 70.3 °F 62.0 °F 29.91 in WNW 5.0 mph 7.0 mph 75% 0.00 in
13:28 70.8 °F 63.2 °F 29.91 in North 8.0 mph 8.0 mph 77% 0.00 in
13:34 71.2 °F 62.1 °F 29.91 in West 2.0 mph 5.0 mph 73% 0.00 in
13:39 71.6 °F 61.3 °F 29.91 in NW 4.0 mph 8.0 mph 70% 0.00 in
13:44 71.9 °F 62.4 °F 29.91 in NE 8.0 mph 9.0 mph 72% 0.00 in
13:49 71.9 °F 61.6 °F 29.91 in NW 3.0 mph 7.0 mph 70% 0.00 in
13:54 71.8 °F 61.5 °F 29.91 in WNW 1.0 mph 4.0 mph 70% 0.00 in
13:59 72.4 °F 60.8 °F 29.91 in NW 3.0 mph 6.0 mph 67% 0.00 in
14:04 72.3 °F 62.0 °F 29.91 in WNW 6.0 mph 6.0 mph 70% 0.00 in
14:09 72.0 °F 60.9 °F 29.90 in NW 7.0 mph 7.0 mph 68% 0.00 in
14:14 72.0 °F 59.6 °F 29.90 in West 3.0 mph 6.0 mph 65% 0.00 in
14:19 72.4 °F 61.2 °F 29.90 in NNW 2.0 mph 4.0 mph 68% 0.00 in
14:25 72.8 °F 60.8 °F 29.90 in WNW 5.0 mph 8.0 mph 66% 0.00 in
14:30 71.9 °F 59.9 °F 29.90 in West 5.0 mph 7.0 mph 66% 0.00 in
14:35 72.4 °F 62.1 °F 29.90 in NW 5.0 mph 9.0 mph 70% 0.00 in
14:36 72.4 °F 60.8 °F 29.90 in NW 2.0 mph 9.0 mph 67% 0.00 in
14:38 72.8 °F 61.6 °F 29.90 in NW 7.0 mph 9.0 mph 68% 0.00 in
14:43 72.8 °F 60.8 °F 29.90 in NNW 6.0 mph 10.0 mph 66% 0.00 in
14:49 73.1 °F 61.9 °F 29.90 in NNW 6.0 mph 6.0 mph 68% 0.00 in
14:54 73.1 °F 61.5 °F 29.90 in WNW 7.0 mph 9.0 mph 67% 0.00 in
14:59 73.1 °F 59.8 °F 29.89 in NW 8.0 mph 9.0 mph 63% 0.00 in
15:04 72.8 °F 60.4 °F 29.89 in WNW 2.0 mph 9.0 mph 65% 0.00 in
15:10 73.1 °F 60.7 °F 29.89 in WNW 7.0 mph 9.0 mph 65% 0.00 in
15:15 73.7 °F 61.2 °F 29.89 in West 6.0 mph 6.0 mph 65% 0.00 in
15:20 73.5 °F 61.0 °F 29.89 in NW 6.0 mph 9.0 mph 65% 0.00 in
15:25 74.0 °F 62.4 °F 29.89 in NW 3.0 mph 7.0 mph 67% 0.00 in
15:30 74.0 °F 61.1 °F 29.88 in WNW 8.0 mph 8.0 mph 64% 0.00 in
15:36 73.8 °F 59.1 °F 29.88 in NW 3.0 mph 9.0 mph 60% 0.00 in
15:41 74.2 °F 60.8 °F 29.88 in West 6.0 mph 7.0 mph 63% 0.00 in
15:46 74.3 °F 57.6 °F 29.88 in WNW 3.0 mph 6.0 mph 56% 0.00 in
15:51 74.4 °F 59.6 °F 29.88 in North 7.0 mph 11.0 mph 60% 0.00 in
15:56 74.3 °F 59.5 °F 29.87 in NW 4.0 mph 6.0 mph 60% 0.00 in
16:01 74.7 °F 59.9 °F 29.87 in WNW 8.0 mph 8.0 mph 60% 0.00 in
16:06 74.8 °F 58.6 °F 29.87 in WSW 6.0 mph 10.0 mph 57% 0.00 in
16:11 75.0 °F 59.7 °F 29.87 in West 4.0 mph 8.0 mph 59% 0.00 in
16:16 74.8 °F 57.6 °F 29.87 in WNW 5.0 mph 8.0 mph 55% 0.00 in
16:21 74.7 °F 59.9 °F 29.86 in WNW 11.0 mph 11.0 mph 60% 0.00 in
16:26 74.6 °F 58.4 °F 29.86 in WNW 6.0 mph 8.0 mph 57% 0.00 in
16:32 74.3 °F 58.1 °F 29.86 in WNW 5.0 mph 8.0 mph 57% 0.00 in
16:37 74.9 °F 59.6 °F 29.86 in WSW 9.0 mph 9.0 mph 59% 0.00 in
16:38 74.8 °F 57.6 °F 29.86 in West 3.0 mph 9.0 mph 55% 0.00 in
16:43 75.3 °F 58.5 °F 29.86 in West 6.0 mph 7.0 mph 56% 0.00 in
16:48 75.3 °F 59.0 °F 29.85 in West 7.0 mph 9.0 mph 57% 0.00 in
16:53 75.7 °F 57.4 °F 29.85 in NW 4.0 mph 7.0 mph 53% 0.00 in
16:58 75.7 °F 58.4 °F 29.85 in NW 6.0 mph 8.0 mph 55% 0.00 in
17:03 75.4 °F 57.1 °F 29.85 in WSW 5.0 mph 8.0 mph 53% 0.00 in
17:08 75.2 °F 56.9 °F 29.84 in WSW 3.0 mph 7.0 mph 53% 0.00 in
17:13 75.2 °F 55.8 °F 29.85 in West 6.0 mph 8.0 mph 51% 0.00 in
17:18 75.2 °F 55.8 °F 29.85 in West 6.0 mph 7.0 mph 51% 0.00 in
17:24 75.3 °F 55.9 °F 29.84 in WNW 5.0 mph 8.0 mph 51% 0.00 in
17:29 75.3 °F 56.5 °F 29.84 in WNW 7.0 mph 8.0 mph 52% 0.00 in
17:34 75.0 °F 55.1 °F 29.84 in NW 5.0 mph 5.0 mph 50% 0.00 in
17:39 75.3 °F 55.9 °F 29.84 in WNW 2.0 mph 5.0 mph 51% 0.00 in
17:44 75.3 °F 57.5 °F 29.84 in WNW 3.0 mph 10.0 mph 54% 0.00 in
17:49 75.7 °F 56.8 °F 29.84 in West 4.0 mph 6.0 mph 52% 0.00 in
17:54 75.5 °F 57.2 °F 29.84 in WSW 7.0 mph 8.0 mph 53% 0.00 in
17:59 75.1 °F 55.8 °F 29.84 in West 3.0 mph 6.0 mph 51% 0.00 in
18:04 74.9 °F 55.0 °F 29.84 in NW 3.0 mph 5.0 mph 50% 0.00 in
18:09 75.2 °F 56.4 °F 29.84 in NNW 4.0 mph 7.0 mph 52% 0.00 in
18:14 75.3 °F 54.8 °F 29.84 in WNW 1.0 mph 5.0 mph 49% 0.00 in
18:19 75.7 °F 55.2 °F 29.84 in NW 3.0 mph 4.0 mph 49% 0.00 in
18:24 75.4 °F 56.6 °F 29.84 in NNW 6.0 mph 9.0 mph 52% 0.00 in
18:29 75.1 °F 56.8 °F 29.84 in NW 5.0 mph 7.0 mph 53% 0.00 in
18:34 75.3 °F 57.5 °F 29.84 in North 4.0 mph 4.0 mph 54% 0.00 in
18:39 75.3 °F 57.0 °F 29.84 in North 3.0 mph 5.0 mph 53% 0.00 in
18:44 75.4 °F 56.0 °F 29.83 in NNW 5.0 mph 7.0 mph 51% 0.00 in
18:49 75.3 °F 57.0 °F 29.83 in NW 3.0 mph 7.0 mph 53% 0.00 in
18:54 75.2 °F 56.9 °F 29.84 in NW 2.0 mph 5.0 mph 53% 0.00 in
18:59 75.4 °F 57.1 °F 29.83 in WNW 4.0 mph 5.0 mph 53% 0.00 in
19:04 75.2 °F 56.9 °F 29.83 in WNW 5.0 mph 5.0 mph 53% 0.00 in
19:09 75.1 °F 56.8 °F 29.83 in NW 2.0 mph 4.0 mph 53% 0.00 in
19:14 74.8 °F 56.5 °F 29.83 in WNW 4.0 mph 8.0 mph 53% 0.00 in
19:19 74.3 °F 57.1 °F 29.83 in WNW 3.0 mph 4.0 mph 55% 0.00 in
19:24 73.9 °F 56.7 °F 29.83 in NW 3.0 mph 5.0 mph 55% 0.00 in
19:29 73.9 °F 56.7 °F 29.83 in NW 2.0 mph 5.0 mph 55% 0.00 in
19:34 73.7 °F 57.0 °F 29.83 in NW 3.0 mph 4.0 mph 56% 0.00 in
19:40 73.6 °F 57.4 °F 29.83 in NW 1.0 mph 4.0 mph 57% 0.00 in
19:45 73.5 °F 58.3 °F 29.83 in NNW 2.0 mph 4.0 mph 59% 0.00 in
19:50 73.3 °F 57.7 °F 29.83 in NNW 2.0 mph 3.0 mph 58% 0.00 in
19:55 73.1 °F 57.9 °F 29.83 in NW 1.0 mph 3.0 mph 59% 0.00 in
20:00 73.1 °F 58.4 °F 29.83 in WNW 2.0 mph 2.0 mph 60% 0.00 in
20:05 73.1 °F 57.9 °F 29.83 in NW 2.0 mph 2.0 mph 59% 0.00 in
20:10 73.0 °F 57.8 °F 29.83 in WNW 2.0 mph 3.0 mph 59% 0.00 in
20:15 72.8 °F 57.7 °F 29.83 in WNW 1.0 mph 2.0 mph 59% 0.00 in
20:20 72.6 °F 57.9 °F 29.83 in NW 1.0 mph 2.0 mph 60% 0.00 in
20:25 72.4 °F 57.8 °F 29.83 in Calm   1.0 mph 60% 0.00 in
20:31 72.4 °F 58.2 °F 29.83 in Calm     61% 0.00 in
20:36 72.1 °F 58.4 °F 29.83 in Calm     62% 0.00 in
20:37 72.0 °F 58.3 °F 29.83 in Calm     62% 0.00 in
20:42 70.9 °F 58.6 °F 29.83 in WNW 1.0 mph 1.0 mph 65% 0.00 in
20:47 69.7 °F 58.3 °F 29.83 in WNW 1.0 mph 1.0 mph 67% 0.00 in
20:52 68.9 °F 57.9 °F 29.84 in WNW 1.0 mph 1.0 mph 68% 0.00 in
20:57 68.5 °F 57.9 °F 29.84 in North 1.0 mph 1.0 mph 69% 0.00 in
21:02 67.7 °F 58.7 °F 29.84 in NNW 2.0 mph 2.0 mph 73% 0.00 in
21:07 66.8 °F 58.6 °F 29.84 in NNW 1.0 mph 1.0 mph 75% 0.00 in
21:12 66.2 °F 58.0 °F 29.84 in NNW 2.0 mph 4.0 mph 75% 0.00 in
21:13 66.2 °F 58.0 °F 29.84 in NNW 2.0 mph 4.0 mph 75% 0.00 in
21:18 66.1 °F 57.6 °F 29.84 in NNW 2.0 mph 4.0 mph 74% 0.00 in
21:23 65.9 °F 57.4 °F 29.84 in NNW 3.0 mph 3.0 mph 74% 0.00 in
21:28 65.7 °F 56.8 °F 29.84 in NNW 3.0 mph 3.0 mph 73% 0.00 in
21:33 65.6 °F 56.7 °F 29.84 in NNW 3.0 mph 3.0 mph 73% 0.00 in
21:38 65.4 °F 56.5 °F 29.84 in NNW 3.0 mph 4.0 mph 73% 0.00 in
21:44 65.1 °F 56.2 °F 29.84 in NNW 3.0 mph 3.0 mph 73% 0.00 in
21:48 65.0 °F 55.8 °F 29.85 in NNW 2.0 mph 4.0 mph 72% 0.00 in
21:54 64.9 °F 55.7 °F 29.84 in North 1.0 mph 3.0 mph 72% 0.00 in
21:56 64.8 °F 56.0 °F 29.85 in NNW 2.0 mph 3.0 mph 73% 0.00 in
22:01 64.5 °F 56.0 °F 29.85 in NNE 1.0 mph 3.0 mph 74% 0.00 in
22:06 64.2 °F 55.8 °F 29.85 in North 1.0 mph 2.0 mph 74% 0.00 in
22:11 63.9 °F 55.8 °F 29.85 in Calm   2.0 mph 75% 0.00 in
22:16 63.7 °F 55.6 °F 29.85 in NNE 1.0 mph 2.0 mph 75% 0.00 in
22:21 63.6 °F 55.9 °F 29.85 in Calm   2.0 mph 76% 0.00 in
22:26 63.4 °F 55.7 °F 29.86 in Calm   2.0 mph 76% 0.00 in
22:31 63.1 °F 55.4 °F 29.86 in North 2.0 mph 3.0 mph 76% 0.00 in
22:36 62.9 °F 55.2 °F 29.86 in North 1.0 mph 3.0 mph 76% 0.00 in
22:42 62.8 °F 55.1 °F 29.86 in North 2.0 mph 3.0 mph 76% 0.00 in
22:47 62.6 °F 54.6 °F 29.86 in NNW 2.0 mph 4.0 mph 75% 0.00 in
22:52 62.5 °F 54.5 °F 29.86 in North 2.0 mph 2.0 mph 75% 0.00 in
22:57 62.3 °F 54.3 °F 29.86 in North 2.0 mph 2.0 mph 75% 0.00 in
23:02 62.3 °F 54.3 °F 29.86 in North 1.0 mph 2.0 mph 75% 0.00 in
23:07 62.2 °F 54.2 °F 29.87 in North 1.0 mph 2.0 mph 75% 0.00 in
23:12 62.1 °F 54.1 °F 29.87 in North 1.0 mph 2.0 mph 75% 0.00 in
23:17 62.0 °F 54.0 °F 29.87 in Calm   1.0 mph 75% 0.00 in
23:22 61.7 °F 54.1 °F 29.87 in Calm     76% 0.00 in
23:27 61.5 °F 53.9 °F 29.87 in NNE 1.0 mph 1.0 mph 76% 0.00 in
23:32 61.4 °F 53.8 °F 29.87 in Calm   1.0 mph 76% 0.00 in
23:37 61.3 °F 53.7 °F 29.87 in NNE 1.0 mph 1.0 mph 76% 0.00 in
23:42 61.3 °F 54.0 °F 29.87 in Calm   1.0 mph 77% 0.00 in
23:47 61.2 °F 53.9 °F 29.87 in North 1.0 mph 2.0 mph 77% 0.00 in
23:52 60.8 °F 53.9 °F 29.87 in Calm   1.0 mph 78% 0.00 in
23:58 60.4 °F 53.9 °F 29.87 in North 1.0 mph 1.0 mph 79% 0.00 in
Compliments of Weather Underground